createdAt,value
2023-04-18T00:00:57.213Z,4.05
2023-04-18T00:03:25.097Z,3.95
2023-04-18T00:05:52.627Z,5.45
2023-04-18T00:08:19.848Z,3.40
2023-04-18T00:10:47.435Z,3.55
2023-04-18T00:13:14.681Z,3.80
2023-04-18T00:15:43.882Z,3.72
2023-04-18T00:18:11.270Z,4.38
2023-04-18T00:20:39.322Z,3.78
2023-04-18T00:23:07.903Z,3.80
2023-04-18T00:25:35.235Z,3.08
2023-04-18T00:28:02.814Z,6.60
2023-04-18T00:30:30.159Z,4.18
2023-04-18T00:32:57.541Z,3.75
2023-04-18T00:35:25.165Z,5.30
2023-04-18T00:37:52.386Z,4.28
2023-04-18T00:40:19.919Z,3.50
2023-04-18T00:42:47.324Z,3.40
2023-04-18T00:45:14.769Z,3.72
2023-04-18T00:47:42.229Z,3.53
2023-04-18T00:50:10.904Z,3.67
2023-04-18T00:52:38.299Z,3.42
2023-04-18T00:55:07.778Z,5.38
2023-04-18T00:57:36.085Z,5.03
2023-04-18T01:00:10.009Z,3.28
2023-04-18T01:02:38.098Z,4.55
2023-04-18T01:05:06.817Z,3.42
2023-04-18T01:07:37.398Z,4.57
2023-04-18T01:10:05.250Z,3.70
2023-04-18T01:12:32.497Z,3.00
2023-04-18T01:15:00.862Z,5.85
2023-04-18T01:17:29.534Z,3.53
2023-04-18T01:19:56.999Z,3.30
2023-04-18T01:22:24.563Z,3.40
2023-04-18T01:24:51.826Z,5.13
2023-04-18T01:27:19.260Z,3.53
2023-04-18T01:29:46.631Z,3.10
2023-04-18T01:32:14.385Z,2.83
2023-04-18T01:34:41.706Z,4.82
2023-04-18T01:37:09.027Z,2.92
2023-04-18T01:39:36.346Z,3.65
2023-04-18T01:42:03.785Z,6.20
2023-04-18T01:44:31.068Z,3.58
2023-04-18T01:46:58.446Z,3.83
2023-04-18T01:49:25.789Z,3.00
2023-04-18T01:51:53.073Z,2.85
2023-04-18T01:54:22.075Z,3.40
2023-04-18T01:56:49.305Z,3.30
2023-04-18T01:59:17.180Z,3.10
2023-04-18T02:01:45.139Z,2.80
2023-04-18T02:04:12.671Z,3.20
2023-04-18T02:06:40.143Z,3.58
2023-04-18T02:09:07.398Z,3.65
2023-04-18T02:11:34.700Z,3.17
2023-04-18T02:14:03.593Z,3.15
2023-04-18T02:16:31.393Z,3.42
2023-04-18T02:18:58.833Z,2.45
2023-04-18T02:21:26.029Z,2.67
2023-04-18T02:23:53.356Z,3.30
2023-04-18T02:26:23.008Z,3.05
2023-04-18T02:28:50.433Z,3.10
2023-04-18T02:31:17.686Z,2.75
2023-04-18T02:33:47.286Z,3.22
2023-04-18T02:36:14.609Z,3.20
2023-04-18T02:38:46.105Z,2.67
2023-04-18T02:41:17.406Z,2.45
2023-04-18T02:43:45.040Z,3.20
2023-04-18T02:46:14.537Z,2.75
2023-04-18T02:48:42.791Z,3.05
2023-04-18T02:51:13.296Z,2.80
2023-04-18T02:53:40.978Z,5.70
2023-04-18T02:56:08.551Z,2.83
2023-04-18T02:59:08.169Z,3.97
2023-04-18T03:02:02.886Z,2.63
2023-04-18T03:04:30.543Z,4.43
2023-04-18T03:07:01.614Z,3.38
2023-04-18T03:09:32.726Z,2.67
2023-04-18T03:12:05.672Z,3.10
2023-04-18T03:14:34.710Z,4.93
2023-04-18T03:17:02.337Z,3.40
2023-04-18T03:19:36.462Z,2.83
2023-04-18T03:22:08.348Z,4.22
2023-04-18T03:24:39.423Z,2.78
2023-04-18T03:27:08.642Z,2.78
2023-04-18T03:29:38.553Z,3.78
2023-04-18T03:32:06.281Z,3.95
2023-04-18T03:34:33.774Z,3.28
2023-04-18T03:37:02.368Z,3.15
2023-04-18T03:39:33.601Z,3.00
2023-04-18T03:42:02.076Z,4.45
2023-04-18T03:44:29.957Z,3.83
2023-04-18T03:46:57.526Z,3.65
2023-04-18T03:49:26.154Z,4.15
2023-04-18T03:51:53.615Z,2.50
2023-04-18T03:54:20.901Z,8.13
2023-04-18T03:56:49.922Z,3.67
2023-04-18T03:59:17.252Z,2.53
2023-04-18T04:01:48.762Z,3.60
2023-04-18T04:04:16.683Z,2.08
2023-04-18T04:06:44.257Z,3.15
2023-04-18T04:09:11.717Z,2.72
2023-04-18T04:11:39.784Z,4.07
2023-04-18T04:14:09.858Z,4.35
2023-04-18T04:16:42.530Z,2.80
2023-04-18T04:19:12.195Z,3.05
2023-04-18T04:21:46.527Z,2.88
2023-04-18T04:24:16.980Z,4.20
2023-04-18T04:26:48.742Z,2.65
2023-04-18T04:29:21.485Z,3.03
2023-04-18T04:31:49.470Z,4.80
2023-04-18T04:34:26.763Z,2.88
2023-04-18T04:36:54.982Z,5.30
2023-04-18T04:39:24.061Z,2.70
2023-04-18T04:42:04.633Z,3.25
2023-04-18T04:44:41.771Z,2.65
2023-04-18T04:47:09.833Z,2.80
2023-04-18T04:49:39.431Z,2.28
2023-04-18T04:52:06.949Z,2.33
2023-04-18T04:54:34.471Z,3.90
2023-04-18T04:57:03.290Z,3.00
2023-04-18T04:59:31.502Z,2.40
2023-04-18T05:01:58.883Z,2.45
2023-04-18T05:04:26.500Z,2.30
2023-04-18T05:06:54.250Z,2.53
2023-04-18T05:09:21.597Z,3.17
2023-04-18T05:11:49.555Z,2.47
2023-04-18T05:14:17.729Z,3.03
2023-04-18T05:16:45.170Z,2.55
2023-04-18T05:19:12.462Z,2.65
2023-04-18T05:21:39.925Z,3.28
2023-04-18T05:24:07.271Z,4.72
2023-04-18T05:26:34.909Z,3.53
2023-04-18T05:29:02.257Z,2.90
2023-04-18T05:31:29.601Z,4.03
2023-04-18T05:33:57.017Z,2.58
2023-04-18T05:36:24.362Z,2.35
2023-04-18T05:38:52.802Z,3.25
2023-04-18T05:41:20.112Z,3.80
2023-04-18T05:44:01.832Z,2.65
2023-04-18T05:46:32.373Z,3.28
2023-04-18T05:48:59.773Z,5.80
2023-04-18T05:51:28.711Z,2.33
2023-04-18T05:53:56.064Z,2.40
2023-04-18T05:56:23.410Z,2.88
2023-04-18T05:58:51.474Z,2.38
2023-04-18T06:01:18.964Z,2.40
2023-04-18T06:03:46.507Z,2.70
2023-04-18T06:06:14.337Z,2.58
2023-04-18T06:08:41.798Z,11.20
2023-04-18T06:11:09.296Z,2.15
2023-04-18T06:13:37.462Z,3.08
2023-04-18T06:16:05.435Z,3.17
2023-04-18T06:18:33.120Z,2.90
2023-04-18T06:21:00.545Z,4.07
2023-04-18T06:23:27.963Z,3.17
2023-04-18T06:25:56.608Z,3.00
2023-04-18T06:28:24.276Z,3.92
2023-04-18T06:30:51.607Z,2.78
2023-04-18T06:33:18.854Z,2.63
2023-04-18T06:35:46.506Z,3.08
2023-04-18T06:38:13.861Z,2.80
2023-04-18T06:40:41.310Z,3.33
2023-04-18T06:43:08.613Z,2.53
2023-04-18T06:45:36.291Z,3.05
2023-04-18T06:48:04.452Z,2.55
2023-04-18T06:50:31.849Z,3.13
2023-04-18T06:52:59.209Z,4.18
2023-04-18T06:55:26.567Z,2.63
2023-04-18T06:57:53.876Z,4.50
2023-04-18T07:00:21.369Z,3.15
2023-04-18T07:02:48.935Z,2.70
2023-04-18T07:05:16.344Z,4.75
2023-04-18T07:07:43.702Z,4.93
2023-04-18T07:10:11.569Z,4.82
2023-04-18T07:12:39.120Z,4.47
2023-04-18T07:15:06.986Z,3.15
2023-04-18T07:17:34.409Z,3.95
2023-04-18T07:20:01.931Z,3.78
2023-04-18T07:22:29.820Z,2.38
2023-04-18T07:24:57.143Z,5.07
2023-04-18T07:27:24.395Z,4.40
2023-04-18T07:29:51.705Z,2.58
2023-04-18T07:32:18.947Z,3.90
2023-04-18T07:34:46.990Z,6.93
2023-04-18T07:37:15.183Z,5.38
2023-04-18T07:39:42.607Z,3.90
2023-04-18T07:42:11.402Z,3.75
2023-04-18T07:44:38.763Z,4.80
2023-04-18T07:47:10.025Z,4.32
2023-04-18T07:49:38.183Z,6.32
2023-04-18T07:52:05.572Z,6.85
2023-04-18T07:54:33.022Z,6.70
2023-04-18T07:57:00.888Z,4.50
2023-04-18T07:59:29.753Z,7.97
2023-04-18T08:01:57.022Z,6.75
2023-04-18T08:04:25.789Z,5.40
2023-04-18T08:06:56.514Z,5.35
2023-04-18T08:09:23.772Z,5.40
2023-04-18T08:11:51.169Z,4.85
2023-04-18T08:14:18.739Z,6.40
2023-04-18T08:16:46.234Z,5.15
2023-04-18T08:19:13.912Z,6.20
2023-04-18T08:21:41.474Z,5.00
2023-04-18T08:24:08.727Z,7.18
2023-04-18T08:26:36.012Z,5.90
2023-04-18T08:29:03.484Z,8.93
2023-04-18T08:31:31.889Z,7.60
2023-04-18T08:33:59.307Z,4.78
2023-04-18T08:36:26.806Z,8.18
2023-04-18T08:38:54.067Z,5.90
2023-04-18T08:41:24.985Z,5.05
2023-04-18T08:43:52.408Z,5.93
2023-04-18T08:46:20.041Z,4.05
2023-04-18T08:48:51.337Z,6.13
2023-04-18T08:51:18.771Z,4.18
2023-04-18T08:54:01.634Z,7.78
2023-04-18T08:56:29.802Z,3.45
2023-04-18T08:59:01.131Z,7.15
2023-04-18T09:01:52.829Z,4.35
2023-04-18T09:04:36.244Z,6.35
2023-04-18T09:07:06.056Z,4.20
2023-04-18T09:09:45.887Z,4.53
2023-04-18T09:12:22.473Z,4.25
2023-04-18T09:14:51.748Z,6.28
2023-04-18T09:17:43.587Z,5.97
2023-04-18T09:20:13.019Z,4.63
2023-04-18T09:22:50.694Z,6.57
2023-04-18T09:25:35.296Z,7.53
2023-04-18T09:28:20.981Z,4.78
2023-04-18T09:30:51.558Z,3.72
2023-04-18T09:33:34.756Z,5.72
2023-04-18T09:36:18.824Z,4.72
2023-04-18T09:38:47.462Z,3.65
2023-04-18T09:41:18.482Z,4.03
2023-04-18T09:43:48.229Z,4.25
2023-04-18T09:46:17.566Z,5.97
2023-04-18T09:48:45.105Z,4.30
2023-04-18T09:51:16.361Z,4.25
2023-04-18T09:53:47.388Z,3.78
2023-04-18T09:56:24.573Z,4.80
2023-04-18T09:58:57.107Z,6.78
2023-04-18T10:01:28.249Z,4.35
2023-04-18T10:03:57.355Z,4.78
2023-04-18T10:06:27.487Z,4.55
2023-04-18T10:08:55.662Z,3.78
2023-04-18T10:11:24.372Z,3.63
2023-04-18T10:13:57.566Z,3.75
2023-04-18T10:18:53.491Z,3.42
2023-04-18T10:21:21.696Z,3.50
2023-04-18T10:23:49.252Z,3.30
2023-04-18T10:26:16.719Z,4.00
2023-04-18T10:28:56.854Z,4.05
2023-04-18T10:31:26.998Z,3.63
2023-04-18T10:36:30.232Z,5.20
2023-04-18T10:39:05.904Z,5.55
2023-04-18T10:41:34.378Z,3.88
2023-04-18T10:44:08.530Z,6.15
2023-04-18T10:46:37.264Z,4.63
2023-04-18T10:49:19.625Z,6.97
2023-04-18T10:51:52.636Z,5.40
2023-04-18T10:57:04.544Z,4.03
2023-04-18T10:59:34.255Z,4.15
2023-04-18T11:02:23.247Z,5.00
2023-04-18T11:04:52.095Z,4.20
2023-04-18T11:07:20.341Z,4.63
2023-04-18T11:09:56.790Z,3.80
2023-04-18T11:12:24.085Z,4.50
2023-04-18T11:14:52.558Z,3.88
2023-04-18T11:17:23.585Z,3.50
2023-04-18T11:19:59.211Z,5.80
2023-04-18T11:22:26.931Z,4.53
2023-04-18T11:25:00.926Z,4.68
2023-04-18T11:27:29.490Z,3.65
2023-04-18T11:29:57.390Z,3.83
2023-04-18T11:32:24.843Z,5.80
2023-04-18T11:34:54.030Z,6.10
2023-04-18T11:37:21.624Z,7.43
2023-04-18T11:39:52.172Z,3.88
2023-04-18T11:42:20.002Z,5.40
2023-04-18T11:44:47.859Z,7.57
2023-04-18T11:47:29.804Z,3.95
2023-04-18T11:50:08.401Z,5.75
2023-04-18T11:52:36.894Z,6.38
2023-04-18T11:55:18.476Z,5.00
2023-04-18T11:57:53.487Z,7.03
2023-04-18T12:00:38.436Z,6.13
2023-04-18T12:03:11.853Z,5.93
2023-04-18T12:05:41.085Z,7.38
2023-04-18T12:08:09.913Z,7.53
2023-04-18T12:10:38.014Z,6.00
2023-04-18T12:13:08.926Z,5.32
2023-04-18T12:15:39.445Z,7.05
2023-04-18T12:18:10.212Z,5.10
2023-04-18T12:20:52.389Z,5.78
2023-04-18T12:23:32.616Z,5.35
2023-04-18T12:26:04.547Z,5.18
2023-04-18T12:28:32.783Z,4.53
2023-04-18T12:31:00.466Z,5.95
2023-04-18T12:33:28.075Z,4.90
2023-04-18T12:35:56.083Z,4.00
2023-04-18T12:38:24.161Z,5.10
2023-04-18T12:40:52.101Z,4.75
2023-04-18T12:43:19.781Z,4.40
2023-04-18T12:45:47.326Z,3.45
2023-04-18T12:48:14.798Z,4.18
2023-04-18T12:50:42.070Z,3.70
2023-04-18T12:53:09.436Z,6.07
2023-04-18T12:55:39.259Z,3.97
2023-04-18T12:58:06.668Z,3.22
2023-04-18T13:00:34.071Z,5.72
2023-04-18T13:03:01.602Z,5.47
2023-04-18T13:05:32.892Z,4.05
2023-04-18T13:10:32.408Z,3.70
2023-04-18T13:12:59.657Z,5.35
2023-04-18T13:15:27.829Z,4.25
2023-04-18T13:17:58.470Z,3.13
2023-04-18T13:20:26.326Z,3.35
2023-04-18T13:22:53.619Z,3.40
2023-04-18T13:25:21.815Z,3.47
2023-04-18T13:27:50.395Z,5.47
2023-04-18T13:30:18.190Z,3.30
2023-04-18T13:32:46.276Z,3.35
2023-04-18T13:35:13.912Z,3.30
2023-04-18T13:37:41.275Z,5.95
2023-04-18T13:40:09.454Z,3.67
2023-04-18T13:42:38.598Z,3.50
2023-04-18T13:45:08.558Z,3.30
2023-04-18T13:47:35.950Z,3.40
2023-04-18T13:50:03.531Z,4.47
2023-04-18T13:52:30.856Z,3.03
2023-04-18T13:54:58.112Z,2.60
2023-04-18T13:57:25.409Z,3.35
2023-04-18T13:59:52.677Z,5.28
2023-04-18T14:02:19.969Z,3.30
2023-04-18T14:04:47.585Z,3.53
2023-04-18T14:07:14.966Z,3.20
2023-04-18T14:09:42.212Z,3.22
2023-04-18T14:12:09.495Z,3.30
2023-04-18T14:14:37.009Z,3.35
2023-04-18T14:17:04.424Z,4.93
2023-04-18T14:19:32.143Z,3.53
2023-04-18T14:21:59.606Z,3.85
2023-04-18T14:24:26.987Z,3.88
2023-04-18T14:26:54.801Z,5.60
2023-04-18T14:29:22.169Z,4.60
2023-04-18T14:31:50.586Z,3.88
2023-04-18T14:34:17.855Z,4.90
2023-04-18T14:36:45.334Z,3.50
2023-04-18T14:39:13.264Z,2.88
2023-04-18T14:41:41.063Z,4.53
2023-04-18T14:44:08.457Z,4.18
2023-04-18T14:46:35.797Z,3.17
2023-04-18T14:49:03.222Z,3.00
2023-04-18T14:51:31.294Z,3.75
2023-04-18T14:53:58.643Z,2.33
2023-04-18T14:56:26.574Z,3.15
2023-04-18T14:58:53.809Z,3.05
2023-04-18T15:01:21.131Z,2.83
2023-04-18T15:03:50.781Z,3.22
2023-04-18T15:06:18.223Z,3.92
2023-04-18T15:08:45.678Z,2.97
2023-04-18T15:11:13.633Z,2.75
2023-04-18T15:13:40.969Z,3.10
2023-04-18T15:16:09.785Z,3.15
2023-04-18T15:18:37.072Z,4.70
2023-04-18T15:21:04.426Z,2.90
2023-04-18T15:23:32.066Z,3.05
2023-04-18T15:25:59.483Z,2.75
2023-04-18T15:28:26.689Z,2.50
2023-04-18T15:30:54.039Z,2.90
2023-04-18T15:33:21.863Z,2.90
2023-04-18T15:35:49.120Z,3.90
2023-04-18T15:38:17.662Z,2.67
2023-04-18T15:40:45.120Z,3.10
2023-04-18T15:43:13.761Z,2.75
2023-04-18T15:45:41.135Z,2.60
2023-04-18T15:48:08.444Z,3.60
2023-04-18T15:50:36.577Z,2.97
2023-04-18T15:53:03.802Z,2.50
2023-04-18T15:55:31.073Z,2.97
2023-04-18T15:57:58.275Z,2.92
2023-04-18T16:00:25.661Z,3.03
2023-04-18T16:02:52.983Z,3.80
2023-04-18T16:05:20.250Z,3.25
2023-04-18T16:07:47.532Z,2.63
2023-04-18T16:10:15.386Z,4.55
2023-04-18T16:12:42.737Z,3.40
2023-04-18T16:15:10.546Z,4.13
2023-04-18T16:17:38.250Z,3.45
2023-04-18T16:20:08.153Z,2.90
2023-04-18T16:22:35.897Z,3.22
2023-04-18T16:25:04.185Z,2.78
2023-04-18T16:27:32.204Z,2.70
2023-04-18T16:29:59.557Z,3.00
2023-04-18T16:32:27.017Z,3.20
2023-04-18T16:34:54.385Z,3.45
2023-04-18T16:37:21.722Z,3.38
2023-04-18T16:39:49.062Z,3.83
2023-04-18T16:42:16.467Z,5.28
2023-04-18T16:44:45.280Z,2.53
2023-04-18T16:47:12.525Z,4.72
2023-04-18T16:49:41.258Z,3.63
2023-04-18T16:52:08.578Z,2.53
2023-04-18T16:54:35.917Z,2.90
2023-04-18T16:57:03.415Z,2.97
2023-04-18T16:59:30.924Z,5.47
2023-04-18T17:01:59.697Z,3.33
2023-04-18T17:04:30.401Z,3.92
2023-04-18T17:06:58.007Z,4.97
2023-04-18T17:09:25.339Z,3.17
2023-04-18T17:11:52.600Z,3.33
2023-04-18T17:14:20.789Z,3.20
2023-04-18T17:16:48.850Z,3.30
2023-04-18T17:19:17.530Z,3.63
2023-04-18T17:21:44.879Z,2.88
2023-04-18T17:24:12.234Z,2.72
2023-04-18T17:26:39.917Z,3.58
2023-04-18T17:29:07.830Z,3.03
2023-04-18T17:31:41.272Z,2.92
2023-04-18T17:34:08.766Z,3.80
2023-04-18T17:36:36.069Z,3.20
2023-04-18T17:39:06.647Z,3.65
2023-04-18T17:41:38.595Z,4.05
2023-04-18T17:44:07.664Z,3.42
2023-04-18T17:46:35.203Z,4.13
2023-04-18T17:49:02.604Z,6.60
2023-04-18T17:51:29.904Z,2.92
2023-04-18T17:53:57.129Z,2.42
2023-04-18T17:56:24.455Z,3.05
2023-04-18T17:58:52.327Z,3.20
2023-04-18T18:01:22.292Z,4.07
2023-04-18T18:03:49.877Z,4.97
2023-04-18T18:06:17.305Z,2.65
2023-04-18T18:08:44.603Z,5.38
2023-04-18T18:11:12.050Z,8.27
2023-04-18T18:13:39.384Z,13.20
2023-04-18T18:16:07.722Z,9.77
2023-04-18T18:18:35.262Z,9.52
2023-04-18T18:21:02.536Z,10.73
2023-04-18T18:23:29.824Z,12.60
2023-04-18T18:25:57.118Z,14.88
2023-04-18T18:28:24.453Z,15.23
2023-04-18T18:30:51.877Z,11.73
2023-04-18T18:33:19.187Z,10.82
2023-04-18T18:35:46.434Z,11.02
2023-04-18T18:38:14.005Z,11.75
2023-04-18T18:40:41.245Z,14.85
2023-04-18T18:43:08.526Z,7.22
2023-04-18T18:45:35.939Z,15.00
2023-04-18T18:48:04.080Z,10.88
2023-04-18T18:50:31.537Z,9.15
2023-04-18T18:53:01.702Z,8.73
2023-04-18T18:55:29.931Z,10.35
2023-04-18T18:57:57.154Z,8.18
2023-04-18T19:00:24.858Z,6.88
2023-04-18T19:02:52.400Z,8.07
2023-04-18T19:05:20.084Z,4.57
2023-04-18T19:07:47.378Z,9.98
2023-04-18T19:10:14.746Z,8.40
2023-04-18T19:12:41.999Z,4.85
2023-04-18T19:15:10.458Z,12.65
2023-04-18T19:17:37.789Z,8.98
2023-04-18T19:20:05.694Z,7.50
2023-04-18T19:22:33.137Z,11.77
2023-04-18T19:25:00.812Z,8.85
2023-04-18T19:27:28.186Z,6.07
2023-04-18T19:29:55.538Z,5.68
2023-04-18T19:32:22.915Z,9.43
2023-04-18T19:34:51.511Z,6.25
2023-04-18T19:37:18.786Z,8.43
2023-04-18T19:39:45.980Z,7.10
2023-04-18T19:42:13.225Z,6.05
2023-04-18T19:44:40.568Z,5.63
2023-04-18T19:47:08.060Z,5.72
2023-04-18T19:49:35.319Z,5.95
2023-04-18T19:52:02.694Z,10.50
2023-04-18T19:54:33.331Z,7.60
2023-04-18T19:57:01.378Z,8.10
2023-04-18T19:59:28.638Z,11.13
2023-04-18T20:01:57.823Z,4.00
2023-04-18T20:04:26.920Z,5.38
2023-04-18T20:06:55.498Z,4.18
2023-04-18T20:09:22.945Z,10.00
2023-04-18T20:11:50.333Z,8.95
2023-04-18T20:14:18.126Z,5.53
2023-04-18T20:16:46.685Z,6.60
2023-04-18T20:19:16.971Z,7.18
2023-04-18T20:21:44.529Z,6.40
2023-04-18T20:24:11.866Z,7.30
2023-04-18T20:26:39.146Z,6.85
2023-04-18T20:29:06.463Z,5.63
2023-04-18T20:31:33.920Z,6.80
2023-04-18T20:34:01.126Z,6.88
2023-04-18T20:36:30.339Z,7.93
2023-04-18T20:38:57.959Z,6.65
2023-04-18T20:41:27.026Z,8.43
2023-04-18T20:43:54.327Z,5.00
2023-04-18T20:46:21.805Z,6.78
2023-04-18T20:48:49.065Z,6.75
2023-04-18T20:51:16.371Z,5.25
2023-04-18T20:53:43.757Z,5.13
2023-04-18T20:56:11.147Z,7.05
2023-04-18T20:58:38.388Z,5.25
2023-04-18T21:01:07.064Z,6.63
2023-04-18T21:03:34.592Z,5.88
2023-04-18T21:06:02.345Z,4.60
2023-04-18T21:08:29.945Z,7.30
2023-04-18T21:10:57.223Z,5.50
2023-04-18T21:13:24.594Z,5.65
2023-04-18T21:15:52.087Z,5.57
2023-04-18T21:18:19.467Z,6.30
2023-04-18T21:20:46.822Z,7.47
2023-04-18T21:23:14.194Z,7.97
2023-04-18T21:25:41.608Z,7.25
2023-04-18T21:28:08.942Z,4.60
2023-04-18T21:30:36.583Z,3.70
2023-04-18T21:33:04.047Z,5.10
2023-04-18T21:35:31.556Z,6.28
2023-04-18T21:37:58.807Z,5.22
2023-04-18T21:40:26.939Z,4.22
2023-04-18T21:42:54.175Z,4.30
2023-04-18T21:45:21.551Z,4.68
2023-04-18T21:47:49.668Z,5.05
2023-04-18T21:50:16.964Z,4.70
2023-04-18T21:52:44.221Z,5.68
2023-04-18T21:55:11.584Z,4.97
2023-04-18T21:57:38.915Z,5.70
2023-04-18T22:00:08.565Z,4.55
2023-04-18T22:02:37.652Z,6.93
2023-04-18T22:05:05.665Z,5.18
2023-04-18T22:07:34.186Z,4.80
2023-04-18T22:10:03.749Z,7.50
2023-04-18T22:12:32.209Z,5.97
2023-04-18T22:14:59.697Z,4.50
2023-04-18T22:17:27.105Z,6.70
2023-04-18T22:19:54.749Z,4.80
2023-04-18T22:22:22.041Z,5.38
2023-04-18T22:24:49.327Z,4.63
2023-04-18T22:27:16.691Z,4.82
2023-04-18T22:29:44.037Z,4.22
2023-04-18T22:32:11.356Z,6.80
2023-04-18T22:34:38.689Z,8.10
2023-04-18T22:37:06.279Z,7.63
2023-04-18T22:39:33.526Z,5.43
2023-04-18T22:42:01.003Z,5.00
2023-04-18T22:44:28.241Z,7.82
2023-04-18T22:46:55.662Z,6.70
2023-04-18T22:49:23.256Z,5.22
2023-04-18T22:51:54.329Z,8.13
2023-04-18T22:54:22.240Z,6.10
2023-04-18T22:56:49.992Z,6.30
2023-04-18T22:59:17.696Z,6.53
2023-04-18T23:01:45.782Z,3.70
2023-04-18T23:04:13.379Z,5.40
2023-04-18T23:06:40.915Z,5.03
2023-04-18T23:09:11.355Z,4.95
2023-04-18T23:11:38.681Z,4.15
2023-04-18T23:14:06.506Z,5.63
2023-04-18T23:16:33.764Z,5.78
2023-04-18T23:19:00.962Z,6.10
2023-04-18T23:21:28.915Z,6.38
2023-04-18T23:23:56.201Z,10.38
2023-04-18T23:26:25.281Z,5.32
2023-04-18T23:28:53.149Z,7.53
2023-04-18T23:31:20.381Z,4.47
2023-04-18T23:33:47.681Z,6.13
2023-04-18T23:36:14.957Z,4.57
2023-04-18T23:38:43.708Z,7.72
2023-04-18T23:41:11.011Z,6.22
2023-04-18T23:43:38.283Z,5.55
2023-04-18T23:46:05.657Z,4.45
2023-04-18T23:48:33.003Z,6.18
2023-04-18T23:51:01.241Z,4.10
2023-04-18T23:53:28.517Z,6.40
2023-04-18T23:55:55.828Z,5.90
2023-04-18T23:58:23.152Z,4.70
